| |
Missouri Department of Transportation

Social Media Facebook Twitter Flickr Instagram YouTube RSS

Current AWOS Information

 
AWOS Home - General Info for all Airports
Current AWOS for all Airports - Current METAR for all Airports
Glossary - Disclaimer - Other Links


HARRISONVILLE--LAWRENCE SMITH MEMORIAL--KLRY
 
Recent AWOS History
 
08/28/15     12:12 PM CDT      17:12 GMT
Air Temperature 76°F (24°C ) 1st Cloud Layer Scattered at 12,000 feet
Dew Point 65°F (18°C) 2nd Cloud Layer  
Barometric Pressure 30.03 in Hg. 3rd Cloud Layer  
Wind Speed 10 mph (9 knots) Density Altitude 2100 feet
Peak Wind Gusts   Variable Wind Directions  
Wind Direction Quadrant(190°) Variable Visibility  
Visibility 10 statute miles  

Thunderstorm and Precipitation Identification: 
Thunderstorm Remarks: 

Current METAR Record: METAR KLRY 281713Z AUTO 19008KT 10SM SCT120 24/18 A3003 RMK AO2

 

 

 

About Us
How Do I...
Contact Us
Missouri Department of Transportation
Central Office
105 W. Capitol Avenue
Jefferson City, MO 65102
1-888-ASK-MODOT (275-6636)
1-866-831-6277 (Motor Carrier Services)
Driver's License Offices
horz_bar
| | |
Missouri State Government
© 2013 Missouri Department of Transportation. All Rights Reserved.   Privacy Policy.
 
 
 
 
RSS FeedYoutubeBlogFlickrTwitter Facebook